North Marlton, New Jersey
Current Conditions -  °F | °C
As of 8:32 AM on Thursday 23 Oct 2014 (Local Time) from KVAY Reporting Station
Light Rain Light Rain  
Wind Chill: 50°   Ceiling: 2800
Heat Index: 50°   Visibility: 2.5mi
Dew Point: 47°   Wind: 9mph
Humidity: 89%   Direction: 320°NW
Pressure: 29.75"   Gusts: NA
Location:  39.8786°N, 74.8969°W
Report Text: KVAY 231232Z AUTO 32008KT 2 1/2SM -RA BR FEW010 OVC028 10/08 A2975 RMK AO2 P0001 T01000083
Loading
Personal Weather Stations






























Interactive Weather Map
Tropical Storm Tracking
New forecast layout! Learn more

10-Day Weather Forecast

Advertisements
Track Severe Weather on mobile